Wladikavkaz, Russia
Current Conditions -  °F | °C
As of 4:30 PM on Monday 22 Dec 2014 (Local Time) from URMO Reporting Station
Overcast Overcast  
Wind Chill: 28°   Ceiling: 1500
Heat Index: 36°   Visibility: 6mi
Dew Point: 32°   Wind: 11mph
Humidity: 87%   Direction: 280°W
Pressure: 30"   Gusts: 18mph
Location:  43.05°N, 44.65°E
Report Text: URMO 221330Z 28005G08MPS 9999 BKN015CB OVC130 02/00 Q1016 NOSIGRMK QFE717/0956 SC070
Loading
Personal Weather Stations






























Interactive Weather Map New forecast layout! Learn more

10-Day Weather Forecast

Advertisements
Track Severe Weather on mobile